Teigen, Montana
Current Conditions -  °F | °C
As of 10:15 PM on Sunday 19 Oct 2014 (Local Time) from KMVH Reporting Station
Clear Clear  
Wind Chill: 48°   Ceiling: Unl
Heat Index: 48°   Visibility: 10mi
Dew Point: 32°   Wind: 3mph
Humidity: 54%   Direction: 320°NW
Pressure: 30"   Gusts: NA
Location:  47.04°N, 108.6°W
Report Text: KMVH 200415Z AUTO 32003KT 10SM CLR 09/00 A3000 RMK A01
Loading
Personal Weather Stations






























Interactive Weather Map
Tropical Storm Tracking
New forecast layout! Learn more

10-Day Weather Forecast

Advertisements
Track Severe Weather on mobile